Little C — WCX810 — position and weather

sailwx.info

Track history (hours):
 
Tides and Currents Weather Stations Pressure Air Temp Water Temp Dewpoint Dewpoint Depression Visibility Wind Speed Wind Dir Waves Ship Positions

Little C

Last reported at 2018-Feb-16 20:22 UTC. Time now 2018-Feb-19 02:01 UTC.
Position N 40°43' W 074°03'.

Type: Tug. MMSI: 367308350.

Date/timePositionNaut miles runAvg speedWind from/ knotsBaromVisibWave heightAir tempDewpointWater temp
2018-Feb-16 20:22N 40°43' W 074°03'2 6.4
2018-Feb-16 20:00N 40°44' W 074°01'0 0.1
2018-Feb-16 19:30N 40°44' W 074°01'0 0.0
2018-Feb-16 19:00N 40°44' W 074°01'0 0.0
2018-Feb-16 18:30N 40°44' W 074°01'0 0.0
2018-Feb-16 18:00N 40°44' W 074°01'0 0.0
2018-Feb-16 17:31N 40°44' W 074°01'0 0.0
2018-Feb-16 17:01N 40°44' W 074°01'0 0.0
2018-Feb-16 16:30N 40°44' W 074°01'0 0.0
2018-Feb-16 16:00N 40°44' W 074°01'0 0.0
2018-Feb-16 15:30N 40°44' W 074°01'0 0.0
2018-Feb-16 15:01N 40°44' W 074°01'0 0.0
2018-Feb-16 14:31N 40°44' W 074°01'0 0.0
2018-Feb-16 14:00N 40°44' W 074°01'0 0.0
2018-Feb-16 13:31N 40°44' W 074°01'0 0.0
2018-Feb-16 13:00N 40°44' W 074°01'0 0.0
2018-Feb-16 12:31N 40°44' W 074°01'4 7.6
2018-Feb-16 12:01N 40°41' W 074°02'0 0.8
2018-Feb-16 11:31N 40°41' W 074°02'2 0.1
2018-Feb-15 20:29N 40°43' W 074°03'2 5.0
2018-Feb-15 20:01N 40°44' W 074°01'0 0.0
2018-Feb-15 19:30N 40°44' W 074°01'0 0.0
2018-Feb-15 19:01N 40°44' W 074°01'0 0.0
2018-Feb-15 18:31N 40°44' W 074°01'0 0.0
2018-Feb-15 18:00N 40°44' W 074°01'0 0.0
2018-Feb-15 17:30N 40°44' W 074°01'0 0.0
2018-Feb-15 17:00N 40°44' W 074°01'0 0.0
2018-Feb-15 16:31N 40°44' W 074°01'0 0.0
2018-Feb-15 16:01N 40°44' W 074°01'0 0.0
2018-Feb-15 15:30N 40°44' W 074°01'0 0.0
2018-Feb-15 15:00N 40°44' W 074°01'0 0.0
2018-Feb-15 14:31N 40°44' W 074°01'0 0.0
2018-Feb-15 14:00N 40°44' W 074°01'0 0.0
2018-Feb-15 13:30N 40°44' W 074°01'0 0.0
2018-Feb-15 13:01N 40°44' W 074°01'0 0.0
2018-Feb-15 12:31N 40°44' W 074°01'0 0.0
2018-Feb-15 12:01N 40°44' W 074°01'2 3.6
2018-Feb-15 11:30N 40°43' W 074°02'1 0.1
2018-Feb-14 18:22N 40°43' W 074°03'2 5.7
2018-Feb-14 18:00N 40°44' W 074°01'0 1.0
2018-Feb-14 17:30N 40°44' W 074°01'0 0.0
2018-Feb-14 17:00N 40°44' W 074°01'0 0.0
2018-Feb-14 16:30N 40°44' W 074°01'0 0.0
2018-Feb-14 16:00N 40°44' W 074°01'0 0.0
2018-Feb-14 15:30N 40°44' W 074°01'0 0.0
2018-Feb-14 15:00N 40°44' W 074°01'0 0.0
2018-Feb-14 14:30N 40°44' W 074°01'0 0.0
2018-Feb-14 14:00N 40°44' W 074°01'0 0.0
2018-Feb-14 13:30N 40°44' W 074°01'0 0.0
2018-Feb-14 13:00N 40°44' W 074°01'0 0.0
2018-Feb-14 12:30N 40°44' W 074°01'0 0.1
2018-Feb-14 12:00N 40°44' W 074°01'2 4.4
2018-Feb-14 11:30N 40°43' W 074°03'0 0.7
2018-Feb-14 11:00N 40°43' W 074°03'0 0.0
2018-Feb-14 10:30N 40°43' W 074°03'0 0.0
2018-Feb-13 18:30N 40°43' W 074°03'2 4.7
2018-Feb-13 18:00N 40°41' W 074°01'1 2.1
2018-Feb-13 17:30N 40°40' W 074°01'0 0.1
2018-Feb-13 17:00N 40°40' W 074°01'0 0.0
2018-Feb-13 16:31N 40°40' W 074°01'0 0.2
2018-Feb-13 16:01N 40°40' W 074°01'3 6.4
2018-Feb-13 15:31N 40°43' W 074°03'0 0.0
2018-Feb-12 18:00N 40°43' W 074°03'1 2.6
2018-Feb-12 17:30N 40°42' W 074°02'2 4.0
2018-Feb-12 17:00N 40°40' W 074°01'0 0.5
2018-Feb-12 16:30N 40°40' W 074°01'0 0.0
2018-Feb-12 16:00N 40°40' W 074°01'0 0.0
2018-Feb-12 15:30N 40°40' W 074°01'0 0.0
2018-Feb-12 15:00N 40°40' W 074°01'0 0.0
2018-Feb-12 14:30N 40°40' W 074°01'0 0.0
2018-Feb-12 14:00N 40°40' W 074°01'0 0.2
2018-Feb-12 13:30N 40°40' W 074°01'1 1.0
2018-Feb-12 13:01N 40°40' W 074°01'  
2018-Feb-09 18:30N 40°43' W 074°03'0 0.0
2018-Feb-09 17:30N 40°43' W 074°03'0 0.0
2018-Feb-09 17:01N 40°43' W 074°03'0 0.0
2018-Feb-09 16:31N 40°43' W 074°03'0 0.0
2018-Feb-09 14:30N 40°43' W 074°03'2 3.3
2018-Feb-09 14:00N 40°41' W 074°02'2 1.9
2018-Feb-09 13:00N 40°40' W 074°01'2 2.1
2018-Feb-09 12:00N 40°41' W 074°02'1 2.9
2018-Feb-09 11:30N 40°43' W 074°03'  
Track history (hours):
 
Tides and Currents Weather Stations Pressure Air Temp Water Temp Dewpoint Dewpoint Depression Visibility Wind Speed Wind Dir Waves Ship Positions

Little C

Last reported at 2018-Feb-16 20:22 UTC. Time now 2018-Feb-19 02:01 UTC.
Position N 40°43' W 074°03'.

Type: Tug. MMSI: 367308350.

Date/timePositionNaut miles runAvg speedWind from/ knotsBaromVisibWave heightAir tempDewpointWater temp
2018-Feb-16 20:22N 40°43' W 074°03'2 6.4
2018-Feb-16 20:00N 40°44' W 074°01'0 0.1
2018-Feb-16 19:30N 40°44' W 074°01'0 0.0
2018-Feb-16 19:00N 40°44' W 074°01'0 0.0
2018-Feb-16 18:30N 40°44' W 074°01'0 0.0
2018-Feb-16 18:00N 40°44' W 074°01'0 0.0
2018-Feb-16 17:31N 40°44' W 074°01'0 0.0
2018-Feb-16 17:01N 40°44' W 074°01'0 0.0
2018-Feb-16 16:30N 40°44' W 074°01'0 0.0
2018-Feb-16 16:00N 40°44' W 074°01'0 0.0
2018-Feb-16 15:30N 40°44' W 074°01'0 0.0
2018-Feb-16 15:01N 40°44' W 074°01'0 0.0
2018-Feb-16 14:31N 40°44' W 074°01'0 0.0
2018-Feb-16 14:00N 40°44' W 074°01'0 0.0
2018-Feb-16 13:31N 40°44' W 074°01'0 0.0
2018-Feb-16 13:00N 40°44' W 074°01'0 0.0
2018-Feb-16 12:31N 40°44' W 074°01'4 7.6
2018-Feb-16 12:01N 40°41' W 074°02'0 0.8
2018-Feb-16 11:31N 40°41' W 074°02'2 0.1
2018-Feb-15 20:29N 40°43' W 074°03'2 5.0
2018-Feb-15 20:01N 40°44' W 074°01'0 0.0
2018-Feb-15 19:30N 40°44' W 074°01'0 0.0
2018-Feb-15 19:01N 40°44' W 074°01'0 0.0
2018-Feb-15 18:31N 40°44' W 074°01'0 0.0
2018-Feb-15 18:00N 40°44' W 074°01'0 0.0
2018-Feb-15 17:30N 40°44' W 074°01'0 0.0
2018-Feb-15 17:00N 40°44' W 074°01'0 0.0
2018-Feb-15 16:31N 40°44' W 074°01'0 0.0
2018-Feb-15 16:01N 40°44' W 074°01'0 0.0
2018-Feb-15 15:30N 40°44' W 074°01'0 0.0
2018-Feb-15 15:00N 40°44' W 074°01'0 0.0
2018-Feb-15 14:31N 40°44' W 074°01'0 0.0
2018-Feb-15 14:00N 40°44' W 074°01'0 0.0
2018-Feb-15 13:30N 40°44' W 074°01'0 0.0
2018-Feb-15 13:01N 40°44' W 074°01'0 0.0
2018-Feb-15 12:31N 40°44' W 074°01'0 0.0
2018-Feb-15 12:01N 40°44' W 074°01'2 3.6
2018-Feb-15 11:30N 40°43' W 074°02'1 0.1
2018-Feb-14 18:22N 40°43' W 074°03'2 5.7
2018-Feb-14 18:00N 40°44' W 074°01'0 1.0
2018-Feb-14 17:30N 40°44' W 074°01'0 0.0
2018-Feb-14 17:00N 40°44' W 074°01'0 0.0
2018-Feb-14 16:30N 40°44' W 074°01'0 0.0
2018-Feb-14 16:00N 40°44' W 074°01'0 0.0
2018-Feb-14 15:30N 40°44' W 074°01'0 0.0
2018-Feb-14 15:00N 40°44' W 074°01'0 0.0
2018-Feb-14 14:30N 40°44' W 074°01'0 0.0
2018-Feb-14 14:00N 40°44' W 074°01'0 0.0
2018-Feb-14 13:30N 40°44' W 074°01'0 0.0
2018-Feb-14 13:00N 40°44' W 074°01'0 0.0
2018-Feb-14 12:30N 40°44' W 074°01'0 0.1
2018-Feb-14 12:00N 40°44' W 074°01'2 4.4
2018-Feb-14 11:30N 40°43' W 074°03'0 0.7
2018-Feb-14 11:00N 40°43' W 074°03'0 0.0
2018-Feb-14 10:30N 40°43' W 074°03'0 0.0
2018-Feb-13 18:30N 40°43' W 074°03'2 4.7
2018-Feb-13 18:00N 40°41' W 074°01'1 2.1
2018-Feb-13 17:30N 40°40' W 074°01'0 0.1
2018-Feb-13 17:00N 40°40' W 074°01'0 0.0
2018-Feb-13 16:31N 40°40' W 074°01'0 0.2
2018-Feb-13 16:01N 40°40' W 074°01'3 6.4
2018-Feb-13 15:31N 40°43' W 074°03'0 0.0
2018-Feb-12 18:00N 40°43' W 074°03'1 2.6
2018-Feb-12 17:30N 40°42' W 074°02'2 4.0
2018-Feb-12 17:00N 40°40' W 074°01'0 0.5
2018-Feb-12 16:30N 40°40' W 074°01'0 0.0
2018-Feb-12 16:00N 40°40' W 074°01'0 0.0
2018-Feb-12 15:30N 40°40' W 074°01'0 0.0
2018-Feb-12 15:00N 40°40' W 074°01'0 0.0
2018-Feb-12 14:30N 40°40' W 074°01'0 0.0
2018-Feb-12 14:00N 40°40' W 074°01'0 0.2
2018-Feb-12 13:30N 40°40' W 074°01'1 1.0
2018-Feb-12 13:01N 40°40' W 074°01'  
2018-Feb-09 18:30N 40°43' W 074°03'0 0.0
2018-Feb-09 17:30N 40°43' W 074°03'0 0.0
2018-Feb-09 17:01N 40°43' W 074°03'0 0.0
2018-Feb-09 16:31N 40°43' W 074°03'0 0.0
2018-Feb-09 14:30N 40°43' W 074°03'2 3.3
2018-Feb-09 14:00N 40°41' W 074°02'2 1.9
2018-Feb-09 13:00N 40°40' W 074°01'2 2.1
2018-Feb-09 12:00N 40°41' W 074°02'1 2.9
2018-Feb-09 11:30N 40°43' W 074°03'  

Dump ship's entire track history